createdAt,value
2023-01-11T00:01:08.238Z,87.21
2023-01-11T00:03:36.858Z,87.26
2023-01-11T00:06:05.103Z,87.21
2023-01-11T00:08:33.273Z,87.33
2023-01-11T00:11:02.357Z,87.46
2023-01-11T00:13:31.538Z,87.54
2023-01-11T00:16:06.557Z,87.47
2023-01-11T00:18:36.111Z,87.34
2023-01-11T00:21:05.757Z,87.17
2023-01-11T00:23:37.793Z,87.26
2023-01-11T00:26:10.999Z,87.19
2023-01-11T00:28:39.263Z,87.20
2023-01-11T00:31:08.248Z,87.31
2023-01-11T00:33:36.148Z,87.54
2023-01-11T00:36:04.394Z,87.95
2023-01-11T00:38:44.429Z,87.76
2023-01-11T00:41:34.745Z,87.65
2023-01-11T00:44:23.390Z,87.75
2023-01-11T00:47:10.514Z,87.80
2023-01-11T00:49:39.215Z,87.90
2023-01-11T00:52:09.466Z,87.84
2023-01-11T00:54:39.841Z,87.89
2023-01-11T00:57:09.044Z,87.77
2023-01-11T00:59:39.475Z,87.78
2023-01-11T01:02:09.621Z,87.78
2023-01-11T01:04:39.014Z,87.68
2023-01-11T01:07:07.117Z,87.68
2023-01-11T01:09:35.508Z,87.69
2023-01-11T01:12:03.978Z,87.62
2023-01-11T01:14:33.504Z,87.53
2023-01-11T01:17:10.111Z,87.53
2023-01-11T01:19:39.193Z,87.51
2023-01-11T01:22:08.140Z,87.31
2023-01-11T01:24:36.359Z,87.24
2023-01-11T01:27:04.437Z,87.57
2023-01-11T01:29:32.419Z,87.57
2023-01-11T01:32:00.684Z,87.52
2023-01-11T01:34:29.163Z,87.43
2023-01-11T01:36:57.331Z,87.50
2023-01-11T01:39:25.511Z,87.59
2023-01-11T01:41:53.505Z,87.61
2023-01-11T01:44:58.311Z,87.58
2023-01-11T01:47:33.063Z,87.52
2023-01-11T01:50:06.339Z,87.44
2023-01-11T01:52:35.857Z,87.37
2023-01-11T01:55:10.575Z,87.51
2023-01-11T01:57:43.971Z,87.54
2023-01-11T02:00:13.264Z,87.53
2023-01-11T02:02:44.645Z,87.51
2023-01-11T02:05:15.863Z,87.61
2023-01-11T02:07:45.329Z,87.57
2023-01-11T02:10:20.091Z,87.63
2023-01-11T02:13:01.281Z,87.48
2023-01-11T02:15:29.740Z,87.42
2023-01-11T02:17:57.847Z,87.39
2023-01-11T02:20:31.645Z,87.45
2023-01-11T02:23:24.085Z,87.48
2023-01-11T02:26:07.174Z,87.49
2023-01-11T02:28:43.875Z,87.45
2023-01-11T02:31:21.603Z,87.49
2023-01-11T02:34:11.251Z,87.51
2023-01-11T02:36:48.645Z,87.51
2023-01-11T02:39:22.482Z,87.51
2023-01-11T02:42:12.331Z,87.58
2023-01-11T02:45:07.212Z,87.47
2023-01-11T02:47:49.516Z,87.56
2023-01-11T02:50:39.290Z,87.42
2023-01-11T02:53:22.092Z,87.34
2023-01-11T02:55:54.727Z,87.44
2023-01-11T02:58:27.309Z,87.41
2023-01-11T03:00:58.541Z,87.32
2023-01-11T03:03:30.556Z,87.24
2023-01-11T03:06:24.518Z,87.36
2023-01-11T03:09:04.611Z,87.41
2023-01-11T03:12:14.340Z,87.43
2023-01-11T03:15:21.990Z,87.44
2023-01-11T03:18:07.021Z,87.42
2023-01-11T03:20:39.646Z,87.43
2023-01-11T03:23:21.817Z,87.43
2023-01-11T03:26:14.382Z,87.36
2023-01-11T03:29:28.061Z,87.28
2023-01-11T03:32:22.335Z,87.19
2023-01-11T03:35:28.239Z,87.23
2023-01-11T03:38:20.889Z,87.16
2023-01-11T03:40:55.832Z,87.10
2023-01-11T03:43:25.764Z,87.13
2023-01-11T03:46:06.714Z,87.08
2023-01-11T03:48:55.225Z,86.69
2023-01-11T03:51:27.983Z,86.70
2023-01-11T03:54:04.949Z,86.55
2023-01-11T03:56:40.088Z,86.36
2023-01-11T03:59:08.050Z,86.47
2023-01-11T04:01:37.871Z,86.45
2023-01-11T04:04:06.029Z,86.22
2023-01-11T04:06:36.972Z,86.12
2023-01-11T04:09:06.205Z,85.89
2023-01-11T04:11:34.151Z,85.83
2023-01-11T04:14:02.559Z,85.78
2023-01-11T04:16:30.543Z,85.82
2023-01-11T04:18:58.512Z,85.68
2023-01-11T04:21:26.523Z,85.53
2023-01-11T04:23:54.761Z,85.56
2023-01-11T04:26:22.692Z,85.61
2023-01-11T04:28:52.227Z,85.84
2023-01-11T04:31:22.173Z,85.80
2023-01-11T04:33:50.585Z,85.61
2023-01-11T04:36:18.531Z,85.34
2023-01-11T04:38:46.601Z,85.25
2023-01-11T04:41:33.010Z,85.24
2023-01-11T04:44:01.074Z,85.21
2023-01-11T04:46:29.077Z,85.27
2023-01-11T04:48:57.147Z,85.56
2023-01-11T04:51:25.082Z,86.06
2023-01-11T04:53:53.012Z,86.31
2023-01-11T04:56:20.950Z,86.43
2023-01-11T04:58:49.037Z,86.56
2023-01-11T05:01:18.903Z,86.88
2023-01-11T05:03:47.530Z,86.93
2023-01-11T05:06:15.699Z,87.03
2023-01-11T05:08:47.784Z,86.91
2023-01-11T05:11:17.604Z,87.14
2023-01-11T05:13:45.639Z,87.02
2023-01-11T05:16:20.336Z,86.87
2023-01-11T05:18:50.887Z,86.73
2023-01-11T05:21:21.701Z,86.71
2023-01-11T05:23:50.054Z,86.37
2023-01-11T05:26:23.709Z,86.16
2023-01-11T05:28:52.823Z,85.94
2023-01-11T05:31:21.511Z,85.68
2023-01-11T05:33:49.635Z,85.66
2023-01-11T05:36:19.830Z,85.78
2023-01-11T05:38:49.913Z,85.85
2023-01-11T05:41:20.203Z,85.80
2023-01-11T05:44:08.581Z,85.86
2023-01-11T05:46:39.017Z,85.84
2023-01-11T05:49:08.466Z,85.78
2023-01-11T05:51:38.306Z,85.87
2023-01-11T05:54:07.997Z,86.06
2023-01-11T05:56:36.079Z,86.10
2023-01-11T05:59:04.359Z,86.16
2023-01-11T06:01:32.290Z,86.11
2023-01-11T06:04:00.351Z,86.18
2023-01-11T06:06:28.446Z,86.14
2023-01-11T06:08:56.476Z,85.96
2023-01-11T06:11:24.359Z,85.78
2023-01-11T06:13:52.319Z,85.67
2023-01-11T06:16:22.740Z,85.75
2023-01-11T06:18:52.894Z,85.89
2023-01-11T06:21:22.002Z,86.17
2023-01-11T06:23:53.344Z,86.23
2023-01-11T06:26:22.671Z,86.36
2023-01-11T06:28:51.237Z,86.55
2023-01-11T06:31:20.122Z,86.60
2023-01-11T06:33:48.347Z,86.58
2023-01-11T06:36:16.565Z,86.58
2023-01-11T06:38:44.511Z,86.72
2023-01-11T06:41:13.260Z,86.56
2023-01-11T06:43:42.157Z,86.31
2023-01-11T06:46:14.417Z,86.52
2023-01-11T06:48:43.502Z,86.66
2023-01-11T06:51:12.210Z,86.69
2023-01-11T06:53:42.342Z,86.65
2023-01-11T06:56:15.605Z,86.43
2023-01-11T06:58:46.783Z,86.28
2023-01-11T07:01:15.430Z,86.01
2023-01-11T07:03:45.375Z,85.92
2023-01-11T07:06:14.178Z,85.80
2023-01-11T07:08:43.000Z,85.85
2023-01-11T07:11:11.399Z,85.88
2023-01-11T07:13:39.515Z,85.82
2023-01-11T07:16:07.744Z,85.61
2023-01-11T07:18:35.799Z,85.71
2023-01-11T07:21:03.940Z,85.79
2023-01-11T07:23:31.985Z,85.92
2023-01-11T07:26:00.136Z,86.12
2023-01-11T07:28:30.547Z,86.33
2023-01-11T07:30:59.960Z,86.43
2023-01-11T07:33:28.616Z,86.68
2023-01-11T07:35:58.245Z,87.07
2023-01-11T07:38:29.398Z,86.96
2023-01-11T07:40:57.315Z,87.36
2023-01-11T07:43:25.489Z,87.29
2023-01-11T07:45:53.736Z,87.03
2023-01-11T07:48:26.367Z,86.84
2023-01-11T07:50:55.298Z,86.71
2023-01-11T07:53:26.005Z,86.72
2023-01-11T07:55:57.732Z,86.88
2023-01-11T07:58:25.908Z,86.70
2023-01-11T08:00:53.952Z,86.56
2023-01-11T08:03:22.504Z,86.51
2023-01-11T08:05:52.270Z,86.47
2023-01-11T08:08:20.972Z,86.43
2023-01-11T08:11:12.314Z,86.39
2023-01-11T08:13:58.846Z,86.20
2023-01-11T08:16:27.571Z,86.12
2023-01-11T08:18:55.706Z,86.16
2023-01-11T08:21:23.646Z,86.09
2023-01-11T08:23:54.349Z,85.99
2023-01-11T08:26:26.069Z,85.78
2023-01-11T08:28:54.758Z,85.72
2023-01-11T08:31:23.065Z,85.52
2023-01-11T08:33:51.546Z,85.22
2023-01-11T08:36:19.465Z,84.87
2023-01-11T08:38:47.662Z,84.57
2023-01-11T08:41:15.647Z,84.27
2023-01-11T08:43:43.789Z,83.97
2023-01-11T08:46:12.254Z,83.55
2023-01-11T08:48:40.235Z,82.73
2023-01-11T08:51:08.866Z,82.49
2023-01-11T08:53:37.863Z,82.76
2023-01-11T08:56:06.549Z,82.83
2023-01-11T08:58:35.611Z,83.02
2023-01-11T09:01:08.069Z,83.15
2023-01-11T09:03:36.501Z,83.16
2023-01-11T09:06:04.729Z,83.57
2023-01-11T09:08:33.463Z,83.85
2023-01-11T09:11:01.496Z,83.97
2023-01-11T09:13:29.600Z,83.89
2023-01-11T09:15:58.252Z,83.80
2023-01-11T09:18:27.161Z,83.88
2023-01-11T09:20:55.996Z,83.96
2023-01-11T09:23:24.403Z,84.00
2023-01-11T09:25:52.827Z,83.97
2023-01-11T09:28:21.691Z,84.15
2023-01-11T09:30:50.113Z,84.34
2023-01-11T09:33:17.985Z,84.44
2023-01-11T09:35:47.160Z,84.86
2023-01-11T09:38:15.255Z,85.02
2023-01-11T09:41:05.627Z,85.30
2023-01-11T09:43:44.009Z,85.43
2023-01-11T09:46:14.206Z,85.49
2023-01-11T09:48:48.193Z,85.50
2023-01-11T09:51:17.278Z,85.34
2023-01-11T09:53:52.480Z,85.25
2023-01-11T09:56:25.458Z,84.98
2023-01-11T09:59:38.101Z,85.14
2023-01-11T10:02:34.710Z,85.31
2023-01-11T10:05:34.789Z,85.03
2023-01-11T10:18:37.594Z,80.79
2023-01-11T10:18:39.108Z,79.01
2023-01-11T10:20:43.792Z,76.23
2023-01-11T10:23:25.155Z,75.46
2023-01-11T10:25:58.312Z,74.87
2023-01-11T10:28:58.507Z,75.91
2023-01-11T10:31:45.888Z,75.77
2023-01-11T10:34:43.274Z,75.63
2023-01-11T10:37:40.295Z,75.85
2023-01-11T10:40:58.772Z,74.63
2023-01-11T10:43:29.392Z,75.38
2023-01-11T10:46:00.942Z,75.31
2023-01-11T10:48:39.286Z,74.51
2023-01-11T10:51:27.237Z,74.13
2023-01-11T10:57:04.712Z,75.37
2023-01-11T11:00:08.093Z,76.29
2023-01-11T11:03:01.102Z,76.56
2023-01-11T11:05:57.108Z,76.91
2023-01-11T11:08:28.258Z,77.28
2023-01-11T11:10:58.968Z,77.69
2023-01-11T11:13:35.874Z,77.75
2023-01-11T11:16:14.852Z,78.15
2023-01-11T11:18:43.997Z,78.34
2023-01-11T11:21:22.438Z,78.53
2023-01-11T11:24:02.408Z,78.66
2023-01-11T11:26:41.652Z,78.66
2023-01-11T11:29:19.492Z,78.60
2023-01-11T11:31:48.473Z,78.01
2023-01-11T11:34:18.299Z,77.70
2023-01-11T11:36:51.708Z,77.45
2023-01-11T11:39:25.515Z,77.42
2023-01-11T11:42:04.461Z,77.73
2023-01-11T11:44:32.708Z,77.83
2023-01-11T11:47:00.587Z,77.49
2023-01-11T11:49:31.784Z,77.06
2023-01-11T11:52:04.803Z,75.29
2023-01-11T11:54:47.623Z,74.04
2023-01-11T11:57:22.152Z,72.56
2023-01-11T12:00:02.914Z,70.96
2023-01-11T12:02:36.149Z,70.57
2023-01-11T12:05:10.373Z,71.16
2023-01-11T12:07:54.180Z,71.45
2023-01-11T12:10:26.584Z,68.86
2023-01-11T12:12:55.943Z,69.24
2023-01-11T12:15:34.662Z,62.51
2023-01-11T12:18:25.725Z,60.80
2023-01-11T12:20:55.280Z,64.66
2023-01-11T12:23:25.692Z,63.21
2023-01-11T12:26:11.088Z,63.44
2023-01-11T12:29:00.360Z,62.45
2023-01-11T12:32:10.510Z,61.12
2023-01-11T12:34:41.301Z,61.71
2023-01-11T12:37:28.777Z,61.44
2023-01-11T12:40:08.191Z,60.72
2023-01-11T12:42:59.169Z,60.53
2023-01-11T12:45:29.853Z,59.07
2023-01-11T12:47:57.797Z,55.19
2023-01-11T12:50:32.114Z,55.39
2023-01-11T12:53:27.347Z,54.33
2023-01-11T12:56:33.007Z,54.25
2023-01-11T12:59:14.183Z,50.66
2023-01-11T13:02:00.604Z,50.54
2023-01-11T13:04:58.437Z,51.02
2023-01-11T13:07:39.191Z,49.42
2023-01-11T13:10:45.564Z,49.30
2023-01-11T13:13:39.161Z,47.85
2023-01-11T13:16:29.371Z,46.95
2023-01-11T13:19:09.311Z,44.38
2023-01-11T13:21:44.693Z,46.74
2023-01-11T13:24:18.150Z,47.77
2023-01-11T13:26:50.653Z,47.28
2023-01-11T13:29:29.037Z,46.61
2023-01-11T13:32:03.868Z,47.01
2023-01-11T13:34:42.855Z,47.32
2023-01-11T13:37:30.350Z,48.69
2023-01-11T13:40:32.822Z,49.91
2023-01-11T13:43:10.186Z,49.97
2023-01-11T13:45:47.100Z,49.76
2023-01-11T13:48:33.615Z,49.38
2023-01-11T13:51:26.035Z,49.00
2023-01-11T13:54:14.561Z,49.74
2023-01-11T13:56:50.932Z,49.98
2023-01-11T13:59:31.913Z,49.67
2023-01-11T14:02:13.978Z,50.82
2023-01-11T14:05:13.933Z,51.30
2023-01-11T14:07:51.418Z,52.08
2023-01-11T14:10:22.112Z,52.26
2023-01-11T14:13:38.831Z,53.27
2023-01-11T14:16:23.207Z,54.09
2023-01-11T14:19:14.225Z,54.92
2023-01-11T14:22:03.969Z,55.60
2023-01-11T14:24:35.971Z,56.23
2023-01-11T14:27:20.120Z,56.89
2023-01-11T14:30:12.879Z,57.20
2023-01-11T14:32:59.741Z,57.29
2023-01-11T14:35:56.117Z,58.37
2023-01-11T14:38:28.227Z,58.85
2023-01-11T14:41:06.015Z,59.00
2023-01-11T14:43:49.223Z,59.25
2023-01-11T14:46:37.108Z,60.13
2023-01-11T14:49:44.136Z,60.15
2023-01-11T14:52:19.831Z,61.31
2023-01-11T14:54:52.153Z,61.96
2023-01-11T14:57:41.427Z,62.11
2023-01-11T15:00:18.304Z,62.63
2023-01-11T15:02:50.368Z,63.01
2023-01-11T15:05:27.305Z,63.41
2023-01-11T15:08:13.974Z,63.95
2023-01-11T15:10:50.525Z,64.64
2023-01-11T15:13:34.550Z,64.87
2023-01-11T15:16:48.869Z,65.28
2023-01-11T15:19:34.364Z,65.55
2023-01-11T15:22:06.065Z,65.82
2023-01-11T15:24:40.566Z,66.13
2023-01-11T15:27:24.025Z,66.65
2023-01-11T15:29:57.143Z,66.79
2023-01-11T15:32:33.964Z,66.99
2023-01-11T15:35:26.957Z,67.37
2023-01-11T15:38:10.984Z,67.30
2023-01-11T15:40:43.173Z,67.71
2023-01-11T15:43:32.841Z,68.16
2023-01-11T15:46:35.064Z,67.44
2023-01-11T15:49:25.010Z,66.93
2023-01-11T15:52:08.326Z,68.37
2023-01-11T15:54:56.572Z,68.50
2023-01-11T15:58:03.040Z,68.93
2023-01-11T16:01:06.604Z,69.35
2023-01-11T16:04:06.748Z,69.60
2023-01-11T16:07:15.463Z,69.94
2023-01-11T16:10:02.380Z,70.36
2023-01-11T16:12:57.718Z,70.21
2023-01-11T16:15:43.879Z,70.77
2023-01-11T16:18:21.838Z,71.26
2023-01-11T16:21:01.344Z,71.96
2023-01-11T16:23:34.196Z,72.77
2023-01-11T16:26:04.656Z,73.86
2023-01-11T16:28:32.842Z,73.01
2023-01-11T16:31:03.851Z,73.61
2023-01-11T16:33:34.524Z,72.72
2023-01-11T16:36:14.363Z,73.08
2023-01-11T16:38:50.122Z,72.71
2023-01-11T16:41:19.843Z,72.42
2023-01-11T16:43:52.838Z,72.28
2023-01-11T16:46:42.752Z,71.97
2023-01-11T16:49:11.387Z,72.10
2023-01-11T16:51:39.343Z,72.84
2023-01-11T16:54:23.224Z,72.44
2023-01-11T16:56:52.087Z,72.41
2023-01-11T16:59:30.773Z,72.94
2023-01-11T17:02:01.385Z,73.33
2023-01-11T17:04:30.747Z,73.08
2023-01-11T17:07:24.573Z,73.24
2023-01-11T17:09:53.166Z,74.23
2023-01-11T17:12:24.757Z,73.92
2023-01-11T17:15:01.301Z,74.68
2023-01-11T17:17:35.498Z,75.44
2023-01-11T17:20:20.201Z,75.32
2023-01-11T17:22:53.884Z,74.58
2023-01-11T17:25:37.256Z,75.21
2023-01-11T17:28:19.235Z,75.36
2023-01-11T17:30:51.270Z,74.94
2023-01-11T17:33:28.287Z,74.41
2023-01-11T17:35:56.741Z,73.50
2023-01-11T17:38:26.798Z,73.97
2023-01-11T17:40:56.813Z,73.66
2023-01-11T17:43:46.435Z,73.94
2023-01-11T17:46:20.910Z,74.56
2023-01-11T17:49:02.192Z,74.14
2023-01-11T17:51:32.906Z,74.53
2023-01-11T17:54:01.031Z,74.22
2023-01-11T17:56:41.931Z,73.89
2023-01-11T17:59:30.369Z,73.70
2023-01-11T18:02:03.422Z,74.17
2023-01-11T18:04:31.829Z,74.44
2023-01-11T18:07:16.503Z,75.27
2023-01-11T18:09:50.473Z,75.86
2023-01-11T18:12:21.611Z,75.33
2023-01-11T18:14:59.779Z,74.78
2023-01-11T18:17:37.175Z,76.59
2023-01-11T18:20:11.073Z,75.93
2023-01-11T18:22:41.977Z,76.35
2023-01-11T18:25:37.072Z,76.14
2023-01-11T18:28:27.194Z,75.92
2023-01-11T18:31:02.029Z,75.65
2023-01-11T18:33:33.174Z,75.65
2023-01-11T18:36:03.497Z,75.35
2023-01-11T18:38:34.108Z,75.28
2023-01-11T18:41:27.178Z,75.94
2023-01-11T18:43:55.738Z,75.71
2023-01-11T18:46:23.696Z,75.61
2023-01-11T18:48:51.926Z,75.36
2023-01-11T18:51:40.417Z,75.32
2023-01-11T18:54:16.972Z,75.43
2023-01-11T18:56:44.942Z,75.18
2023-01-11T18:59:13.729Z,74.64
2023-01-11T19:01:54.296Z,75.18
2023-01-11T19:04:24.454Z,75.14
2023-01-11T19:06:52.495Z,74.90
2023-01-11T19:09:20.493Z,75.01
2023-01-11T19:11:48.734Z,75.15
2023-01-11T19:14:17.220Z,75.03
2023-01-11T19:16:45.179Z,75.14
2023-01-11T19:19:13.763Z,75.61
2023-01-11T19:21:41.894Z,75.71
2023-01-11T19:24:10.011Z,76.14
2023-01-11T19:26:38.067Z,76.15
2023-01-11T19:29:06.095Z,76.23
2023-01-11T19:31:34.135Z,76.37
2023-01-11T19:34:02.100Z,76.37
2023-01-11T19:36:32.204Z,76.25
2023-01-11T19:39:00.197Z,76.74
2023-01-11T19:41:48.421Z,77.03
2023-01-11T19:44:16.419Z,77.05
2023-01-11T19:46:45.682Z,76.79
2023-01-11T19:49:13.866Z,77.10
2023-01-11T19:51:42.729Z,77.30
2023-01-11T19:54:14.700Z,78.03
2023-01-11T19:56:44.128Z,78.06
2023-01-11T19:59:12.098Z,80.15
2023-01-11T20:01:40.115Z,80.57
2023-01-11T20:04:09.059Z,79.68
2023-01-11T20:06:42.866Z,78.87
2023-01-11T20:09:14.094Z,78.58
2023-01-11T20:11:41.999Z,78.86
2023-01-11T20:14:10.157Z,78.97
2023-01-11T20:16:38.237Z,79.22
2023-01-11T20:19:06.405Z,79.20
2023-01-11T20:21:35.187Z,79.10
2023-01-11T20:24:04.499Z,79.05
2023-01-11T20:26:33.987Z,79.03
2023-01-11T20:29:02.585Z,78.99
2023-01-11T20:31:33.065Z,79.02
2023-01-11T20:34:09.385Z,78.93
2023-01-11T20:36:37.992Z,78.98
2023-01-11T20:39:07.159Z,79.02
2023-01-11T20:41:49.024Z,78.61
2023-01-11T20:44:27.255Z,78.97
2023-01-11T20:46:56.468Z,79.13
2023-01-11T20:49:31.710Z,78.76
2023-01-11T20:51:59.871Z,79.14
2023-01-11T20:54:28.083Z,79.28
2023-01-11T20:57:01.220Z,79.07
2023-01-11T20:59:32.413Z,79.25
2023-01-11T21:02:00.467Z,79.44
2023-01-11T21:04:28.436Z,79.96
2023-01-11T21:06:56.325Z,79.55
2023-01-11T21:09:24.406Z,79.68
2023-01-11T21:11:55.199Z,80.24
2023-01-11T21:14:23.576Z,79.83
2023-01-11T21:16:55.231Z,79.07
2023-01-11T21:19:23.868Z,78.95
2023-01-11T21:21:51.868Z,79.18
2023-01-11T21:24:20.972Z,79.02
2023-01-11T21:26:49.231Z,79.10
2023-01-11T21:29:17.331Z,79.28
2023-01-11T21:31:45.386Z,78.99
2023-01-11T21:34:14.400Z,78.99
2023-01-11T21:36:43.169Z,78.96
2023-01-11T21:39:14.125Z,78.61
2023-01-11T21:41:55.686Z,78.46
2023-01-11T21:44:30.663Z,78.60
2023-01-11T21:47:03.437Z,78.89
2023-01-11T21:49:32.949Z,78.92
2023-01-11T21:52:01.113Z,78.84
2023-01-11T21:54:29.126Z,78.72
2023-01-11T21:56:57.158Z,78.68
2023-01-11T21:59:25.769Z,78.50
2023-01-11T22:01:53.793Z,78.63
2023-01-11T22:04:22.228Z,79.40
2023-01-11T22:06:55.185Z,79.49
2023-01-11T22:09:25.833Z,79.36
2023-01-11T22:11:54.596Z,79.71
2023-01-11T22:14:22.664Z,79.23
2023-01-11T22:16:50.959Z,79.46
2023-01-11T22:19:19.535Z,79.92
2023-01-11T22:21:47.706Z,80.63
2023-01-11T22:24:15.919Z,80.38
2023-01-11T22:26:43.966Z,80.45
2023-01-11T22:29:12.138Z,80.40
2023-01-11T22:31:46.571Z,80.19
2023-01-11T22:34:15.303Z,80.19
2023-01-11T22:36:44.522Z,80.70
2023-01-11T22:39:13.538Z,80.10
2023-01-11T22:41:42.174Z,80.28
2023-01-11T22:44:10.167Z,80.97
2023-01-11T22:46:38.869Z,81.00
2023-01-11T22:49:07.594Z,81.03
2023-01-11T22:51:36.764Z,80.88
2023-01-11T22:54:05.230Z,81.00
2023-01-11T22:56:33.741Z,81.19
2023-01-11T22:59:02.238Z,81.18
2023-01-11T23:01:38.857Z,81.00
2023-01-11T23:04:08.472Z,81.11
2023-01-11T23:06:39.341Z,80.94
2023-01-11T23:09:10.586Z,80.89
2023-01-11T23:11:58.924Z,80.88
2023-01-11T23:14:33.038Z,80.84
2023-01-11T23:17:06.644Z,80.61
2023-01-11T23:19:36.845Z,80.93
2023-01-11T23:22:06.036Z,80.74
2023-01-11T23:24:35.236Z,80.91
2023-01-11T23:27:03.650Z,80.84
2023-01-11T23:29:31.524Z,80.57
2023-01-11T23:31:59.967Z,80.59
2023-01-11T23:34:27.894Z,81.13
2023-01-11T23:36:55.855Z,81.44
2023-01-11T23:39:23.893Z,81.50
2023-01-11T23:42:10.792Z,81.00
2023-01-11T23:44:38.768Z,81.07
2023-01-11T23:47:21.920Z,81.25
2023-01-11T23:49:52.320Z,81.33
2023-01-11T23:52:23.657Z,81.50
2023-01-11T23:54:52.238Z,81.51
2023-01-11T23:57:21.617Z,81.35
2023-01-11T23:59:49.828Z,81.37
